createdAt,value
2023-07-09T00:01:39.693Z,20.40
2023-07-09T00:03:43.382Z,20.40
2023-07-09T00:05:50.699Z,20.30
2023-07-09T00:07:54.545Z,20.20
2023-07-09T00:09:59.039Z,20.20
2023-07-09T00:12:02.455Z,20.30
2023-07-09T00:14:08.213Z,20.30
2023-07-09T00:16:18.195Z,20.30
2023-07-09T00:18:21.823Z,20.30
2023-07-09T00:20:25.341Z,20.10
2023-07-09T00:22:28.299Z,20.20
2023-07-09T00:24:32.122Z,20.20
2023-07-09T00:26:38.520Z,20.10
2023-07-09T00:28:42.224Z,20.10
2023-07-09T00:30:46.909Z,20.10
2023-07-09T00:32:53.279Z,20.10
2023-07-09T00:34:57.139Z,20.00
2023-07-09T00:37:00.931Z,19.90
2023-07-09T00:39:06.324Z,20.00
2023-07-09T00:41:18.641Z,20.00
2023-07-09T00:43:22.525Z,20.00
2023-07-09T00:45:28.402Z,20.10
2023-07-09T00:47:43.244Z,20.10
2023-07-09T00:49:49.293Z,20.10
2023-07-09T00:51:53.939Z,20.00
2023-07-09T00:54:03.752Z,19.90
2023-07-09T00:56:11.031Z,19.90
2023-07-09T00:58:17.595Z,20.00
2023-07-09T01:00:20.791Z,19.90
2023-07-09T01:02:25.598Z,19.80
2023-07-09T01:04:30.812Z,19.80
2023-07-09T01:06:39.975Z,19.80
2023-07-09T01:08:43.914Z,19.70
2023-07-09T01:10:46.562Z,19.70
2023-07-09T01:12:51.474Z,19.60
2023-07-09T01:15:00.366Z,19.50
2023-07-09T01:17:08.956Z,19.60
2023-07-09T01:19:15.320Z,19.60
2023-07-09T01:21:22.246Z,19.60
2023-07-09T01:23:26.166Z,19.60
2023-07-09T01:25:30.975Z,19.60
2023-07-09T01:27:37.954Z,19.50
2023-07-09T01:29:45.941Z,19.60
2023-07-09T01:31:52.915Z,19.60
2023-07-09T01:33:56.687Z,19.70
2023-07-09T01:36:02.190Z,19.50
2023-07-09T01:38:07.937Z,19.50
2023-07-09T01:40:29.256Z,19.40
2023-07-09T01:42:35.205Z,19.50
2023-07-09T01:44:39.533Z,19.50
2023-07-09T01:46:48.570Z,19.40
2023-07-09T01:48:54.303Z,19.40
2023-07-09T01:50:58.870Z,19.40
2023-07-09T01:53:02.709Z,19.40
2023-07-09T01:55:09.162Z,19.40
2023-07-09T01:57:20.666Z,19.30
2023-07-09T01:59:24.350Z,19.30
2023-07-09T02:01:29.270Z,19.30
2023-07-09T02:03:32.950Z,19.20
2023-07-09T02:05:37.809Z,19.20
2023-07-09T02:07:41.707Z,19.20
2023-07-09T02:09:45.203Z,19.20
2023-07-09T02:11:50.135Z,19.20
2023-07-09T02:13:53.733Z,19.20
2023-07-09T02:15:57.138Z,19.20
2023-07-09T02:18:03.257Z,19.20
2023-07-09T02:20:08.274Z,19.20
2023-07-09T02:22:12.009Z,19.20
2023-07-09T02:24:15.363Z,19.30
2023-07-09T02:26:18.903Z,19.30
2023-07-09T02:28:23.929Z,19.30
2023-07-09T02:30:27.395Z,19.40
2023-07-09T02:32:31.546Z,19.30
2023-07-09T02:34:36.540Z,19.20
2023-07-09T02:36:44.459Z,19.30
2023-07-09T02:38:47.970Z,19.30
2023-07-09T02:40:51.466Z,19.40
2023-07-09T02:42:55.046Z,19.40
2023-07-09T02:44:59.851Z,19.50
2023-07-09T02:47:03.709Z,19.40
2023-07-09T02:49:08.681Z,19.40
2023-07-09T02:51:12.137Z,19.50
2023-07-09T02:53:15.597Z,19.30
2023-07-09T02:55:19.192Z,19.40
2023-07-09T02:57:22.878Z,19.40
2023-07-09T02:59:27.977Z,19.30
2023-07-09T03:01:35.709Z,19.20
2023-07-09T03:03:39.454Z,19.20
2023-07-09T03:05:43.621Z,19.10
2023-07-09T03:07:47.028Z,19.10
2023-07-09T03:09:51.043Z,19.10
2023-07-09T03:11:54.718Z,19.00
2023-07-09T03:13:58.353Z,19.00
2023-07-09T03:16:02.373Z,19.00
2023-07-09T03:18:08.013Z,19.00
2023-07-09T03:20:14.480Z,19.10
2023-07-09T03:22:18.097Z,19.10
2023-07-09T03:24:22.151Z,19.10
2023-07-09T03:26:26.459Z,19.00
2023-07-09T03:28:31.553Z,19.00
2023-07-09T03:30:35.454Z,19.00
2023-07-09T03:32:39.488Z,19.00
2023-07-09T03:34:44.443Z,19.10
2023-07-09T03:36:48.254Z,19.20
2023-07-09T03:38:52.259Z,19.10
2023-07-09T03:40:56.664Z,19.20
2023-07-09T03:43:00.797Z,19.20
2023-07-09T03:45:04.465Z,19.30
2023-07-09T03:47:08.377Z,19.40
2023-07-09T03:49:12.378Z,19.50
2023-07-09T03:51:17.367Z,19.70
2023-07-09T03:53:20.865Z,19.80
2023-07-09T03:55:27.884Z,19.90
2023-07-09T03:57:31.377Z,20.00
2023-07-09T03:59:35.082Z,20.10
2023-07-09T04:01:38.543Z,20.20
2023-07-09T04:03:42.297Z,20.40
2023-07-09T04:05:46.258Z,20.50
2023-07-09T04:07:51.626Z,20.50
2023-07-09T04:09:55.278Z,20.70
2023-07-09T04:11:58.666Z,20.60
2023-07-09T04:14:02.561Z,20.50
2023-07-09T04:16:06.987Z,20.50
2023-07-09T04:18:10.795Z,20.70
2023-07-09T04:20:15.357Z,21.00
2023-07-09T04:22:19.207Z,21.30
2023-07-09T04:24:25.261Z,21.30
2023-07-09T04:26:28.692Z,21.40
2023-07-09T04:28:33.098Z,21.70
2023-07-09T04:30:36.469Z,21.50
2023-07-09T04:32:40.061Z,21.60
2023-07-09T04:34:44.185Z,21.70
2023-07-09T04:36:47.768Z,21.70
2023-07-09T04:38:51.265Z,21.70
2023-07-09T04:40:56.276Z,21.60
2023-07-09T04:42:59.893Z,21.70
2023-07-09T04:45:03.613Z,21.90
2023-07-09T04:47:07.544Z,22.00
2023-07-09T04:49:13.666Z,22.10
2023-07-09T04:51:17.177Z,22.30
2023-07-09T04:53:20.797Z,22.50
2023-07-09T04:55:24.356Z,22.50
2023-07-09T04:57:29.824Z,22.40
2023-07-09T04:59:34.187Z,22.50
2023-07-09T05:01:37.778Z,22.60
2023-07-09T05:03:41.658Z,22.60
2023-07-09T05:05:45.866Z,22.50
2023-07-09T05:07:49.360Z,22.50
2023-07-09T05:09:53.014Z,22.40
2023-07-09T05:11:56.507Z,22.00
2023-07-09T05:14:01.472Z,21.90
2023-07-09T05:16:05.431Z,21.90
2023-07-09T05:18:09.430Z,22.20
2023-07-09T05:20:13.235Z,22.40
2023-07-09T05:22:16.638Z,22.50
2023-07-09T05:24:20.142Z,22.60
2023-07-09T05:26:23.731Z,22.60
2023-07-09T05:28:27.435Z,22.80
2023-07-09T05:30:32.758Z,22.60
2023-07-09T05:32:36.285Z,22.60
2023-07-09T05:34:39.664Z,22.90
2023-07-09T05:36:43.114Z,22.90
2023-07-09T05:38:47.257Z,23.00
2023-07-09T05:40:50.626Z,23.30
2023-07-09T05:42:54.383Z,23.30
2023-07-09T05:44:57.947Z,23.50
2023-07-09T05:47:02.854Z,23.80
2023-07-09T05:49:07.414Z,24.10
2023-07-09T05:51:10.845Z,24.20
2023-07-09T05:53:14.365Z,24.10
2023-07-09T05:55:17.887Z,24.30
2023-07-09T05:57:21.655Z,24.50
2023-07-09T05:59:25.277Z,24.70
2023-07-09T06:01:28.777Z,24.80
2023-07-09T06:03:35.076Z,24.80
2023-07-09T06:05:38.654Z,24.80
2023-07-09T06:07:42.009Z,24.90
2023-07-09T06:09:46.965Z,25.10
2023-07-09T06:11:50.404Z,24.90
2023-07-09T06:13:54.008Z,24.70
2023-07-09T06:15:57.875Z,24.80
2023-07-09T06:18:01.619Z,24.80
2023-07-09T06:20:07.969Z,25.30
2023-07-09T06:22:11.644Z,26.40
2023-07-09T06:24:15.921Z,27.40
2023-07-09T06:26:20.699Z,28.30
2023-07-09T06:28:24.600Z,29.50
2023-07-09T06:30:28.206Z,30.40
2023-07-09T06:32:31.693Z,31.20
2023-07-09T06:34:35.342Z,31.40
2023-07-09T06:36:39.273Z,32.00
2023-07-09T06:38:42.856Z,32.40
2023-07-09T06:40:46.763Z,32.90
2023-07-09T06:42:49.130Z,32.90
2023-07-09T06:44:52.606Z,33.50
2023-07-09T06:46:56.130Z,33.60
2023-07-09T06:48:59.665Z,33.80
2023-07-09T06:51:03.737Z,32.50
2023-07-09T06:53:08.850Z,32.70
2023-07-09T06:55:12.695Z,32.70
2023-07-09T06:57:16.144Z,32.10
2023-07-09T06:59:19.656Z,32.70
2023-07-09T07:01:23.367Z,32.80
2023-07-09T07:03:27.228Z,33.50
2023-07-09T07:05:30.945Z,33.60
2023-07-09T07:07:34.699Z,34.50
2023-07-09T07:09:39.780Z,35.70
2023-07-09T07:11:43.578Z,35.60
2023-07-09T07:13:47.684Z,36.60
2023-07-09T07:15:52.036Z,37.20
2023-07-09T07:17:55.493Z,38.20
2023-07-09T07:19:59.052Z,38.70
2023-07-09T07:22:02.794Z,39.30
2023-07-09T07:24:07.079Z,38.90
2023-07-09T07:26:11.892Z,39.00
2023-07-09T07:28:15.914Z,39.10
2023-07-09T07:30:19.698Z,39.60
2023-07-09T07:32:23.282Z,40.20
2023-07-09T07:34:26.806Z,40.50
2023-07-09T07:36:32.179Z,40.60
2023-07-09T07:38:37.164Z,40.80
2023-07-09T07:40:40.700Z,41.00
2023-07-09T07:42:45.582Z,40.50
2023-07-09T07:44:48.992Z,40.80
2023-07-09T07:46:52.822Z,41.60
2023-07-09T07:48:56.513Z,41.00
2023-07-09T07:51:04.072Z,41.20
2023-07-09T07:53:09.035Z,41.20
2023-07-09T07:55:16.349Z,41.90
2023-07-09T07:57:21.967Z,42.30
2023-07-09T07:59:26.967Z,42.50
2023-07-09T08:01:30.687Z,42.80
2023-07-09T08:03:34.448Z,42.80
2023-07-09T08:05:41.598Z,42.10
2023-07-09T08:07:45.280Z,42.10
2023-07-09T08:09:49.792Z,41.90
2023-07-09T08:11:53.852Z,42.10
2023-07-09T08:13:57.430Z,42.10
2023-07-09T08:16:03.506Z,42.50
2023-07-09T08:18:07.781Z,42.10
2023-07-09T08:20:12.910Z,42.70
2023-07-09T08:22:17.324Z,43.00
2023-07-09T08:24:22.156Z,43.50
2023-07-09T08:26:25.954Z,43.40
2023-07-09T08:28:28.434Z,43.00
2023-07-09T08:30:32.288Z,43.10
2023-07-09T08:32:37.236Z,43.20
2023-07-09T08:34:54.538Z,41.70
2023-07-09T08:37:06.009Z,40.60
2023-07-09T08:39:09.504Z,40.30
2023-07-09T08:41:26.865Z,39.40
2023-07-09T08:43:38.359Z,39.80
2023-07-09T08:45:53.134Z,39.20
2023-07-09T08:48:06.096Z,40.40
2023-07-09T08:50:15.105Z,41.00
2023-07-09T08:52:32.435Z,40.40
2023-07-09T08:54:38.620Z,42.00
2023-07-09T08:56:43.110Z,41.20
2023-07-09T08:58:48.080Z,42.30
2023-07-09T09:00:55.904Z,43.20
2023-07-09T09:03:06.910Z,43.60
2023-07-09T09:05:13.511Z,42.60
2023-07-09T09:07:22.155Z,43.50
2023-07-09T09:09:31.823Z,43.40
2023-07-09T09:11:46.687Z,43.40
2023-07-09T09:13:53.636Z,41.90
2023-07-09T09:16:06.502Z,41.10
2023-07-09T09:20:45.758Z,41.20
2023-07-09T09:22:52.622Z,41.10
2023-07-09T09:25:00.838Z,41.20
2023-07-09T09:27:04.703Z,41.50
2023-07-09T09:29:14.389Z,41.20
2023-07-09T09:31:20.035Z,41.50
2023-07-09T09:33:24.214Z,41.90
2023-07-09T09:35:34.775Z,41.80
2023-07-09T09:37:39.623Z,41.90
2023-07-09T09:39:42.215Z,41.20
2023-07-09T09:41:47.595Z,41.90
2023-07-09T09:43:54.404Z,42.80
2023-07-09T09:45:57.794Z,43.10
2023-07-09T09:48:03.246Z,42.80
2023-07-09T09:50:07.450Z,42.00
2023-07-09T09:52:16.172Z,41.70
2023-07-09T09:54:24.741Z,40.90
2023-07-09T09:56:31.890Z,41.10
2023-07-09T09:58:35.319Z,41.90
2023-07-09T10:00:38.746Z,42.10
2023-07-09T10:02:43.476Z,42.60
2023-07-09T10:04:47.691Z,43.00
2023-07-09T10:06:56.260Z,43.00
2023-07-09T10:09:04.186Z,43.30
2023-07-09T10:11:17.999Z,43.30
2023-07-09T10:13:28.776Z,42.70
2023-07-09T10:15:41.223Z,42.10
2023-07-09T10:17:56.435Z,42.00
2023-07-09T10:20:04.582Z,42.00
2023-07-09T10:22:12.787Z,41.10
2023-07-09T10:24:30.577Z,41.30
2023-07-09T10:26:42.616Z,41.30
2023-07-09T10:29:06.725Z,41.50
2023-07-09T10:31:17.618Z,41.80
2023-07-09T10:33:29.550Z,42.10
2023-07-09T10:35:44.101Z,41.30
2023-07-09T10:38:07.555Z,41.10
2023-07-09T10:40:16.449Z,40.70
2023-07-09T10:42:26.067Z,40.20
2023-07-09T10:44:37.463Z,40.20
2023-07-09T10:46:44.602Z,40.70
2023-07-09T10:48:50.719Z,39.30
2023-07-09T10:50:55.636Z,37.70
2023-07-09T10:53:03.545Z,38.40
2023-07-09T10:55:15.925Z,38.90
2023-07-09T10:57:30.259Z,39.50
2023-07-09T10:59:37.787Z,39.90
2023-07-09T11:01:44.434Z,39.80
2023-07-09T11:03:53.704Z,39.80
2023-07-09T11:05:57.673Z,39.10
2023-07-09T11:08:05.232Z,38.70
2023-07-09T11:10:16.889Z,39.60
2023-07-09T11:12:26.946Z,39.70
2023-07-09T11:14:35.290Z,39.80
2023-07-09T11:16:41.999Z,39.70
2023-07-09T11:18:58.166Z,39.60
2023-07-09T11:21:03.976Z,39.80
2023-07-09T11:23:17.466Z,39.80
2023-07-09T11:25:30.903Z,38.50
2023-07-09T11:27:36.109Z,39.10
2023-07-09T11:29:49.151Z,39.50
2023-07-09T11:31:52.670Z,38.00
2023-07-09T11:34:04.317Z,38.00
2023-07-09T11:36:13.177Z,38.10
2023-07-09T11:38:21.504Z,38.30
2023-07-09T11:40:25.617Z,38.50
2023-07-09T11:42:32.145Z,38.30
2023-07-09T11:44:36.901Z,38.00
2023-07-09T11:46:54.413Z,37.10
2023-07-09T11:49:00.294Z,37.50
2023-07-09T11:51:13.181Z,37.70
2023-07-09T11:53:30.965Z,37.40
2023-07-09T11:55:41.797Z,37.40
2023-07-09T11:57:50.178Z,37.50
2023-07-09T11:59:55.521Z,37.60
2023-07-09T12:02:02.193Z,38.20
2023-07-09T12:04:06.632Z,37.90
2023-07-09T12:06:20.698Z,38.30
2023-07-09T12:08:36.874Z,38.30
2023-07-09T12:10:47.216Z,37.70
2023-07-09T12:14:56.554Z,36.90
2023-07-09T12:16:59.895Z,35.60
2023-07-09T12:19:03.466Z,34.70
2023-07-09T12:21:11.533Z,34.30
2023-07-09T12:23:22.658Z,34.80
2023-07-09T12:25:28.511Z,34.80
2023-07-09T12:27:38.634Z,35.40
2023-07-09T12:29:42.105Z,35.80
2023-07-09T12:31:47.114Z,35.80
2023-07-09T12:33:51.955Z,35.70
2023-07-09T12:35:58.846Z,35.40
2023-07-09T12:38:02.332Z,35.60
2023-07-09T12:40:13.338Z,35.50
2023-07-09T12:42:20.007Z,35.90
2023-07-09T12:44:25.279Z,35.90
2023-07-09T12:46:29.802Z,36.30
2023-07-09T12:48:35.050Z,36.10
2023-07-09T12:50:38.661Z,36.60
2023-07-09T12:52:47.585Z,37.10
2023-07-09T12:55:01.087Z,36.60
2023-07-09T12:57:15.774Z,36.70
2023-07-09T12:59:21.601Z,36.30
2023-07-09T13:01:27.118Z,36.00
2023-07-09T13:03:35.299Z,36.00
2023-07-09T13:05:38.756Z,36.20
2023-07-09T13:07:43.629Z,36.30
2023-07-09T13:09:51.099Z,36.30
2023-07-09T13:11:56.168Z,36.20
2023-07-09T13:14:01.143Z,35.60
2023-07-09T13:16:06.063Z,35.40
2023-07-09T13:18:13.553Z,35.10
2023-07-09T13:20:17.357Z,35.10
2023-07-09T13:22:21.666Z,35.00
2023-07-09T13:24:27.362Z,35.40
2023-07-09T13:26:30.758Z,35.30
2023-07-09T13:28:34.612Z,34.50
2023-07-09T13:30:38.133Z,34.00
2023-07-09T13:32:42.095Z,34.00
2023-07-09T13:34:47.182Z,33.70
2023-07-09T13:36:52.993Z,33.40
2023-07-09T13:38:56.747Z,33.20
2023-07-09T13:41:03.998Z,33.30
2023-07-09T13:43:13.275Z,33.30
2023-07-09T13:45:23.714Z,33.10
2023-07-09T13:47:27.634Z,33.30
2023-07-09T13:49:31.621Z,33.60
2023-07-09T13:51:35.750Z,33.40
2023-07-09T13:53:40.855Z,33.70
2023-07-09T13:55:46.098Z,34.00
2023-07-09T13:57:49.808Z,34.70
2023-07-09T13:59:53.487Z,35.10
2023-07-09T14:01:59.376Z,35.10
2023-07-09T14:04:03.057Z,34.70
2023-07-09T14:06:08.261Z,34.80
2023-07-09T14:08:11.511Z,35.20
2023-07-09T14:10:19.218Z,35.40
2023-07-09T14:12:21.946Z,35.30
2023-07-09T14:14:26.670Z,35.00
2023-07-09T14:16:30.370Z,35.00
2023-07-09T14:18:33.856Z,34.80
2023-07-09T14:20:37.713Z,34.50
2023-07-09T14:22:44.139Z,34.20
2023-07-09T14:24:47.564Z,34.40
2023-07-09T14:26:53.563Z,34.70
2023-07-09T14:28:58.043Z,34.10
2023-07-09T14:31:01.582Z,34.40
2023-07-09T14:33:05.318Z,34.40
2023-07-09T14:35:19.015Z,34.70
2023-07-09T14:37:22.392Z,34.70
2023-07-09T14:39:30.420Z,34.40
2023-07-09T14:41:34.209Z,34.00
2023-07-09T14:43:39.030Z,33.90
2023-07-09T14:45:43.173Z,33.80
2023-07-09T14:47:46.858Z,33.70
2023-07-09T14:49:51.382Z,34.20
2023-07-09T14:51:56.261Z,33.90
2023-07-09T14:53:59.673Z,33.70
2023-07-09T14:56:03.239Z,33.40
2023-07-09T14:58:16.125Z,33.20
2023-07-09T15:00:23.022Z,33.00
2023-07-09T15:02:33.980Z,32.60
2023-07-09T15:04:37.666Z,32.80
2023-07-09T15:06:41.037Z,32.80
2023-07-09T15:08:44.512Z,32.80
2023-07-09T15:10:49.243Z,32.60
2023-07-09T15:12:53.578Z,32.60
2023-07-09T15:15:01.776Z,32.40
2023-07-09T15:17:07.433Z,31.80
2023-07-09T15:19:14.467Z,31.60
2023-07-09T15:21:18.004Z,31.70
2023-07-09T15:23:23.462Z,31.90
2023-07-09T15:25:29.623Z,32.30
2023-07-09T15:27:33.306Z,32.40
2023-07-09T15:29:36.879Z,32.50
2023-07-09T15:31:40.329Z,32.40
2023-07-09T15:33:45.395Z,32.60
2023-07-09T15:35:51.762Z,32.50
2023-07-09T15:37:55.430Z,32.80
2023-07-09T15:39:58.921Z,32.80
2023-07-09T15:42:02.420Z,32.80
2023-07-09T15:44:06.218Z,32.60
2023-07-09T15:46:18.139Z,32.70
2023-07-09T15:48:25.620Z,32.50
2023-07-09T15:50:31.273Z,32.10
2023-07-09T15:52:35.085Z,31.90
2023-07-09T15:54:38.774Z,32.00
2023-07-09T15:56:42.680Z,32.30
2023-07-09T15:58:47.430Z,32.20
2023-07-09T16:00:52.029Z,32.40
2023-07-09T16:03:15.722Z,32.60
2023-07-09T16:05:24.810Z,32.60
2023-07-09T16:07:29.817Z,32.70
2023-07-09T16:09:33.871Z,32.70
2023-07-09T16:11:39.837Z,32.90
2023-07-09T16:13:43.934Z,32.60
2023-07-09T16:15:47.310Z,32.10
2023-07-09T16:17:51.695Z,31.90
2023-07-09T16:19:54.300Z,32.20
2023-07-09T16:22:00.141Z,32.10
2023-07-09T16:24:13.856Z,31.90
2023-07-09T16:26:17.155Z,31.80
2023-07-09T16:28:22.101Z,31.70
2023-07-09T16:30:30.319Z,31.70
2023-07-09T16:32:33.727Z,31.60
2023-07-09T16:34:39.267Z,31.60
2023-07-09T16:36:42.601Z,31.60
2023-07-09T16:38:47.142Z,31.60
2023-07-09T16:40:52.218Z,31.50
2023-07-09T16:42:57.471Z,31.50
2023-07-09T16:45:00.804Z,31.40
2023-07-09T16:47:07.226Z,31.50
2023-07-09T16:49:27.569Z,31.50
2023-07-09T16:51:30.952Z,31.20
2023-07-09T16:53:34.403Z,31.20
2023-07-09T16:55:37.844Z,30.80
2023-07-09T16:57:42.880Z,30.80
2023-07-09T16:59:46.878Z,30.70
2023-07-09T17:01:51.605Z,30.80
2023-07-09T17:03:55.434Z,30.60
2023-07-09T17:05:59.161Z,30.70
2023-07-09T17:08:02.684Z,30.50
2023-07-09T17:10:06.953Z,30.30
2023-07-09T17:12:13.331Z,30.10
2023-07-09T17:14:19.015Z,29.90
2023-07-09T17:16:22.613Z,29.60
2023-07-09T17:18:29.312Z,29.60
2023-07-09T17:20:33.697Z,29.60
2023-07-09T17:22:37.612Z,29.50
2023-07-09T17:24:41.184Z,29.40
2023-07-09T17:26:44.797Z,29.30
2023-07-09T17:28:48.665Z,29.30
2023-07-09T17:30:54.556Z,29.30
2023-07-09T17:32:59.211Z,29.20
2023-07-09T17:35:02.858Z,29.00
2023-07-09T17:37:07.719Z,29.00
2023-07-09T17:39:20.950Z,28.90
2023-07-09T17:41:24.629Z,28.80
2023-07-09T17:43:28.802Z,28.70
2023-07-09T17:45:32.696Z,28.60
2023-07-09T17:47:37.702Z,28.50
2023-07-09T17:49:41.258Z,28.40
2023-07-09T17:51:45.146Z,28.30
2023-07-09T17:53:48.547Z,28.10
2023-07-09T17:55:53.289Z,27.80
2023-07-09T17:57:59.334Z,27.80
2023-07-09T18:00:03.394Z,27.70
2023-07-09T18:02:16.587Z,27.60
2023-07-09T18:04:30.238Z,27.50
2023-07-09T18:06:34.520Z,27.40
2023-07-09T18:08:38.146Z,27.30
2023-07-09T18:10:43.640Z,27.10
2023-07-09T18:12:47.218Z,27.10
2023-07-09T18:14:53.151Z,26.90
2023-07-09T18:16:56.656Z,26.80
2023-07-09T18:19:04.029Z,26.70
2023-07-09T18:21:14.229Z,26.50
2023-07-09T18:23:18.021Z,26.50
2023-07-09T18:25:22.248Z,26.30
2023-07-09T18:27:29.465Z,26.20
2023-07-09T18:29:35.312Z,26.10
2023-07-09T18:31:38.824Z,26.10
2023-07-09T18:33:42.572Z,26.10
2023-07-09T18:35:46.547Z,26.00
2023-07-09T18:37:54.334Z,25.90
2023-07-09T18:39:57.660Z,25.70
2023-07-09T18:42:01.147Z,25.50
2023-07-09T18:44:16.621Z,25.60
2023-07-09T18:46:19.931Z,25.50
2023-07-09T18:48:25.709Z,25.30
2023-07-09T18:50:31.617Z,25.20
2023-07-09T18:52:35.110Z,25.00
2023-07-09T18:54:39.939Z,24.90
2023-07-09T18:56:43.304Z,24.80
2023-07-09T18:58:47.939Z,24.80
2023-07-09T19:00:52.240Z,24.70
2023-07-09T19:02:57.358Z,24.60
2023-07-09T19:05:04.900Z,24.60
2023-07-09T19:07:14.471Z,24.50
2023-07-09T19:09:20.092Z,24.40
2023-07-09T19:11:25.284Z,24.30
2023-07-09T19:13:28.915Z,24.30
2023-07-09T19:15:36.819Z,24.20
2023-07-09T19:17:40.427Z,24.20
2023-07-09T19:19:45.424Z,24.10
2023-07-09T19:21:53.636Z,24.00
2023-07-09T19:23:57.207Z,23.90
2023-07-09T19:26:00.897Z,23.80
2023-07-09T19:28:09.125Z,23.70
2023-07-09T19:30:14.334Z,23.60
2023-07-09T19:32:23.616Z,23.60
2023-07-09T19:34:29.844Z,23.60
2023-07-09T19:36:33.654Z,23.60
2023-07-09T19:38:37.057Z,23.40
2023-07-09T19:40:42.617Z,23.10
2023-07-09T19:42:46.090Z,23.20
2023-07-09T19:44:52.236Z,23.10
2023-07-09T19:46:55.833Z,23.00
2023-07-09T19:48:59.499Z,23.00
2023-07-09T19:51:02.929Z,23.00
2023-07-09T19:53:19.304Z,22.90
2023-07-09T19:55:25.072Z,23.00
2023-07-09T19:57:28.399Z,23.00
2023-07-09T19:59:32.018Z,22.90
2023-07-09T20:01:37.077Z,22.90
2023-07-09T20:03:40.823Z,22.80
2023-07-09T20:05:44.273Z,22.70
2023-07-09T20:07:47.741Z,22.70
2023-07-09T20:09:51.046Z,22.70
2023-07-09T20:11:54.645Z,22.70
2023-07-09T20:13:58.759Z,22.60
2023-07-09T20:16:03.071Z,22.60
2023-07-09T20:18:16.990Z,22.50
2023-07-09T20:20:20.936Z,22.40
2023-07-09T20:22:26.381Z,22.20
2023-07-09T20:24:29.901Z,22.30
2023-07-09T20:26:33.366Z,22.20
2023-07-09T20:28:36.763Z,22.20
2023-07-09T20:30:40.494Z,22.20
2023-07-09T20:32:46.208Z,22.20
2023-07-09T20:34:55.317Z,22.20
2023-07-09T20:36:58.776Z,22.10
2023-07-09T20:39:02.540Z,22.00
2023-07-09T20:41:06.478Z,21.90
2023-07-09T20:43:20.787Z,21.90
2023-07-09T20:45:29.399Z,21.90
2023-07-09T20:47:32.780Z,21.90
2023-07-09T20:49:38.139Z,21.90
2023-07-09T20:51:43.249Z,21.80
2023-07-09T20:53:46.603Z,21.80
2023-07-09T20:55:50.036Z,21.80
2023-07-09T20:57:52.371Z,21.70
2023-07-09T20:59:55.893Z,21.60
2023-07-09T21:01:59.363Z,21.70
2023-07-09T21:04:02.897Z,21.70
2023-07-09T21:06:15.507Z,21.50
2023-07-09T21:08:22.812Z,21.50
2023-07-09T21:10:27.373Z,21.50
2023-07-09T21:12:29.850Z,21.50
2023-07-09T21:14:33.216Z,21.50
2023-07-09T21:16:36.957Z,21.50
2023-07-09T21:18:40.423Z,21.50
2023-07-09T21:20:44.261Z,21.40
2023-07-09T21:22:47.890Z,21.40
2023-07-09T21:24:56.946Z,21.30
2023-07-09T21:27:02.354Z,21.30
2023-07-09T21:29:05.747Z,21.20
2023-07-09T21:31:17.872Z,21.10
2023-07-09T21:33:30.115Z,21.20
2023-07-09T21:35:33.701Z,21.10
2023-07-09T21:37:36.106Z,21.20
2023-07-09T21:39:39.599Z,21.20
2023-07-09T21:41:45.954Z,21.10
2023-07-09T21:43:49.269Z,21.10
2023-07-09T21:45:55.743Z,21.00
2023-07-09T21:47:59.612Z,21.00
2023-07-09T21:50:03.330Z,21.00
2023-07-09T21:52:16.933Z,21.00
2023-07-09T21:56:40.409Z,21.00
2023-07-09T21:58:45.437Z,20.90
2023-07-09T22:00:55.907Z,20.90
2023-07-09T22:03:00.396Z,20.90
2023-07-09T22:05:03.974Z,20.80
2023-07-09T22:07:14.767Z,20.70
2023-07-09T22:09:18.268Z,20.80
2023-07-09T22:11:25.188Z,20.80
2023-07-09T22:13:29.602Z,20.80
2023-07-09T22:15:36.424Z,20.70
2023-07-09T22:17:39.931Z,20.70
2023-07-09T22:19:45.198Z,20.70
2023-07-09T22:21:49.708Z,20.70
2023-07-09T22:23:57.168Z,20.80
2023-07-09T22:26:00.505Z,20.70
2023-07-09T22:28:04.301Z,20.80
2023-07-09T22:30:08.838Z,20.60
2023-07-09T22:32:23.517Z,20.50
2023-07-09T22:34:28.353Z,20.60
2023-07-09T22:36:31.676Z,20.60
2023-07-09T22:38:35.237Z,20.60
2023-07-09T22:40:38.559Z,20.60
2023-07-09T22:42:41.957Z,20.60
2023-07-09T22:44:45.580Z,20.60
2023-07-09T22:46:49.051Z,20.70
2023-07-09T22:48:54.319Z,20.60
2023-07-09T22:50:58.287Z,20.60
2023-07-09T22:53:02.266Z,20.60
2023-07-09T22:55:27.814Z,20.50
2023-07-09T22:57:31.201Z,20.60
2023-07-09T22:59:34.916Z,20.60
2023-07-09T23:01:39.114Z,20.60
2023-07-09T23:03:45.504Z,20.60
2023-07-09T23:05:51.294Z,20.70
2023-07-09T23:07:54.032Z,20.70
2023-07-09T23:09:57.703Z,20.70
2023-07-09T23:12:02.155Z,20.70
2023-07-09T23:14:06.020Z,20.80
2023-07-09T23:16:16.785Z,20.80
2023-07-09T23:18:22.592Z,20.90
2023-07-09T23:20:26.447Z,20.80
2023-07-09T23:22:31.701Z,20.80
2023-07-09T23:24:35.205Z,20.70
2023-07-09T23:26:40.542Z,20.70
2023-07-09T23:28:44.312Z,20.70
2023-07-09T23:30:47.839Z,20.70
2023-07-09T23:32:50.156Z,20.70
2023-07-09T23:34:54.107Z,20.70
2023-07-09T23:36:57.803Z,20.70
2023-07-09T23:39:06.171Z,20.70
2023-07-09T23:41:19.125Z,20.70
2023-07-09T23:43:23.394Z,20.80
2023-07-09T23:45:27.148Z,20.70
2023-07-09T23:47:29.539Z,20.70
2023-07-09T23:49:32.941Z,20.70
2023-07-09T23:51:36.233Z,20.80
2023-07-09T23:53:40.106Z,20.70
2023-07-09T23:55:45.047Z,20.70
2023-07-09T23:57:53.971Z,20.70
2023-07-09T23:59:57.400Z,20.80
